Time;durP1;ratioP1;P1;durP2;ratioP2;P2;SDS_P1;SDS_P2;PMS_P1;PMS_P2;Temp;Humidity;BMP_temperature;BMP_pressure;BME280_temperature;BME280_humidity;BME280_pressure;Samples;Min_cycle;Max_cycle;Signal;HPM_P1;HPM_P2
2023/12/21 00:00:34;;;;;;;;;;;12.30;95.10;;;;;;5076085;28;19912;-80
2023/12/21 00:02:59;;;;;;;;;;;12.30;95.10;;;;;;5093997;28;19946;-80
2023/12/21 00:05:25;;;;;;;;;;;12.30;95.10;;;;;;5075911;28;19919;-79
2023/12/21 00:07:50;;;;;;;;;;;12.40;95.10;;;;;;5093832;28;19904;-79
2023/12/21 00:10:16;;;;;;;;;;;12.40;95.10;;;;;;5059041;28;19915;-80
2023/12/21 00:12:42;;;;;;;;;;;12.40;95.10;;;;;;5075515;28;20245;-80
2023/12/21 00:15:08;;;;;;;;;;;12.40;95.10;;;;;;5075725;28;20446;-79
2023/12/21 00:17:33;;;;;;;;;;;12.40;95.10;;;;;;5075853;28;19943;-79
2023/12/21 00:19:59;;;;;;;;;;;12.40;95.10;;;;;;5058817;28;19947;-79
2023/12/21 00:22:24;;;;;;;;;;;12.40;95.10;;;;;;5058848;28;20019;-80
2023/12/21 00:24:50;;;;;;;;;;;12.30;95.00;;;;;;5075497;28;19980;-80
2023/12/21 00:27:16;;;;;;;;;;;12.30;95.10;;;;;;5075279;28;20272;-80
2023/12/21 00:29:41;;;;;;;;;;;12.30;95.10;;;;;;5093730;28;19912;-80
2023/12/21 00:32:07;;;;;;;;;;;12.30;95.10;;;;;;5075643;28;20019;-80
2023/12/21 00:34:32;;;;;;;;;;;12.30;95.10;;;;;;5075445;28;19915;-80
2023/12/21 00:36:58;;;;;;;;;;;12.30;95.10;;;;;;5075160;28;19904;-80
2023/12/21 00:39:24;;;;;;;;;;;12.30;95.10;;;;;;5093436;28;19915;-80
2023/12/21 00:41:50;;;;;;;;;;;12.40;95.10;;;;;;5075535;28;20003;-79
2023/12/21 00:44:15;;;;;;;;;;;12.40;95.10;;;;;;5075171;28;19957;-79
2023/12/21 00:46:41;;;;;;;;;;;12.40;95.10;;;;;;5093319;28;20380;-80
2023/12/21 00:49:07;;;;;;;;;;;12.40;95.10;;;;;;5093225;28;19912;-79
2023/12/21 00:51:32;;;;;;;;;;;12.40;95.10;;;;;;5075053;28;19908;-80
2023/12/21 00:53:59;;;;;;;;;;;12.40;95.10;;;;;;5058266;28;19915;-80
2023/12/21 00:56:24;;;;;;;;;;;12.40;95.10;;;;;;5058274;28;19978;-79
2023/12/21 00:58:50;;;;;;;;;;;12.50;95.20;;;;;;5074893;28;20351;-79
2023/12/21 01:01:16;;;;;;;;;;;12.50;95.20;;;;;;5074844;28;19952;-79
2023/12/21 01:03:41;;;;;;;;;;;12.50;95.20;;;;;;5092848;28;19930;-80
2023/12/21 01:06:07;;;;;;;;;;;12.50;95.20;;;;;;5074615;28;19916;-80
2023/12/21 01:08:32;;;;;;;;;;;12.50;95.20;;;;;;5092927;28;19940;-80
2023/12/21 01:10:59;;;;;;;;;;;12.50;95.10;;;;;;5093133;28;19916;-80
2023/12/21 01:13:25;;;;;;;;;;;12.50;95.10;;;;;;5074596;28;20182;-80
2023/12/21 01:15:51;;;;;;;;;;;12.50;95.20;;;;;;5074675;28;19993;-80
2023/12/21 01:18:17;;;;;;;;;;;12.50;95.20;;;;;;5074332;28;19973;-80
2023/12/21 01:20:43;;;;;;;;;;;12.60;95.20;;;;;;5074519;28;19912;-80
2023/12/21 01:23:08;;;;;;;;;;;12.60;95.20;;;;;;5074539;28;19908;-79
2023/12/21 01:25:34;;;;;;;;;;;12.60;95.20;;;;;;5057782;28;20381;-79
2023/12/21 01:27:59;;;;;;;;;;;12.60;95.20;;;;;;5057486;28;20139;-80
2023/12/21 01:30:25;;;;;;;;;;;12.60;95.20;;;;;;5057645;28;19908;-80
2023/12/21 01:32:51;;;;;;;;;;;12.60;95.20;;;;;;5057676;28;20433;-79
2023/12/21 01:35:16;;;;;;;;;;;12.60;95.20;;;;;;5092470;28;20030;-79
2023/12/21 01:37:42;;;;;;;;;;;12.60;95.20;;;;;;5092345;28;19919;-80
2023/12/21 01:40:08;;;;;;;;;;;12.60;95.20;;;;;;5092218;28;19908;-80
2023/12/21 01:42:33;;;;;;;;;;;12.60;95.20;;;;;;5092308;28;19955;-79
2023/12/21 01:44:59;;;;;;;;;;;12.60;95.20;;;;;;5057345;28;19920;-79
2023/12/21 01:47:24;;;;;;;;;;;12.50;95.20;;;;;;5057271;28;19915;-79
2023/12/21 01:49:50;;;;;;;;;;;12.50;95.20;;;;;;5073954;28;19908;-80
2023/12/21 01:52:16;;;;;;;;;;;12.50;95.20;;;;;;5092056;28;19954;-79
2023/12/21 01:54:41;;;;;;;;;;;12.50;95.20;;;;;;5073917;28;19904;-79
2023/12/21 01:57:07;;;;;;;;;;;12.50;95.20;;;;;;5073497;28;19908;-79
2023/12/21 01:59:33;;;;;;;;;;;12.40;95.20;;;;;;5092139;28;20123;-80
2023/12/21 02:01:58;;;;;;;;;;;12.40;95.20;;;;;;5091942;28;19908;-80
2023/12/21 02:04:24;;;;;;;;;;;12.40;95.20;;;;;;5073833;28;19909;-80
2023/12/21 02:06:50;;;;;;;;;;;12.40;95.20;;;;;;5073673;28;20003;-79
2023/12/21 02:09:15;;;;;;;;;;;12.40;95.20;;;;;;5073730;28;19931;-79
2023/12/21 02:11:41;;;;;;;;;;;12.40;95.20;;;;;;5073736;28;19908;-79
2023/12/21 02:14:07;;;;;;;;;;;12.40;95.20;;;;;;5056923;28;19912;-79
2023/12/21 02:16:40;;;;;;;;;;;12.40;95.20;;;;;;5056828;28;19912;-79
2023/12/21 02:19:06;;;;;;;;;;;12.40;95.20;;;;;;5073429;28;19912;-80
2023/12/21 02:21:34;;;;;;;;;;;12.40;95.20;;;;;;5073147;28;19912;-79
2023/12/21 02:24:00;;;;;;;;;;;12.40;95.20;;;;;;5073524;28;19908;-80
2023/12/21 02:26:26;;;;;;;;;;;12.40;95.20;;;;;;5073200;28;20360;-80
2023/12/21 02:28:52;;;;;;;;;;;12.40;95.20;;;;;;5091621;28;19999;-79
2023/12/21 02:31:18;;;;;;;;;;;12.40;95.20;;;;;;5056940;28;19914;-79
2023/12/21 02:33:43;;;;;;;;;;;12.40;95.20;;;;;;5056654;28;19912;-80
2023/12/21 02:36:09;;;;;;;;;;;12.40;95.20;;;;;;5091490;28;20328;-77
2023/12/21 02:38:34;;;;;;;;;;;12.40;95.40;;;;;;5091518;28;19908;-80
2023/12/21 02:41:00;;;;;;;;;;;12.40;95.20;;;;;;5056625;28;19915;-79
2023/12/21 02:43:25;;;;;;;;;;;12.40;95.20;;;;;;5091483;28;19908;-79
2023/12/21 02:45:51;;;;;;;;;;;12.40;95.20;;;;;;5073228;28;20367;-80
2023/12/21 02:48:16;;;;;;;;;;;12.40;95.30;;;;;;5091438;28;19931;-79
2023/12/21 02:50:42;;;;;;;;;;;12.40;95.20;;;;;;5091417;28;19908;-79
2023/12/21 02:53:08;;;;;;;;;;;12.40;95.20;;;;;;5073250;28;20003;-80
2023/12/21 02:55:35;;;;;;;;;;;12.40;95.20;;;;;;5073501;28;19912;-80
2023/12/21 02:58:01;;;;;;;;;;;12.50;95.30;;;;;;5091307;28;19934;-80
2023/12/21 03:00:26;;;;;;;;;;;12.50;95.30;;;;;;5073383;28;19908;-80
2023/12/21 03:02:52;;;;;;;;;;;12.50;95.20;;;;;;5073144;28;19942;-79
2023/12/21 03:05:17;;;;;;;;;;;12.50;95.20;;;;;;5073066;28;20316;-79
2023/12/21 03:07:43;;;;;;;;;;;12.50;95.20;;;;;;5073068;28;20018;-79
2023/12/21 03:10:09;;;;;;;;;;;12.50;95.20;;;;;;5073112;28;19908;-80
2023/12/21 03:12:34;;;;;;;;;;;12.50;95.20;;;;;;5073302;28;19990;-79
2023/12/21 03:15:00;;;;;;;;;;;12.50;95.20;;;;;;5073057;28;19959;-80
2023/12/21 03:17:25;;;;;;;;;;;12.60;95.20;;;;;;5072953;28;19912;-79
2023/12/21 03:19:51;;;;;;;;;;;12.60;95.20;;;;;;5072883;28;19916;-80
2023/12/21 03:22:16;;;;;;;;;;;12.60;95.20;;;;;;5072935;28;19939;-80
2023/12/21 03:24:42;;;;;;;;;;;12.60;95.20;;;;;;5091111;28;19908;-80
2023/12/21 03:27:10;;;;;;;;;;;12.60;95.20;;;;;;5072864;28;19919;-79
2023/12/21 03:29:35;;;;;;;;;;;12.60;95.30;;;;;;5056881;28;20371;-79
2023/12/21 03:32:01;;;;;;;;;;;12.60;95.20;;;;;;5091101;28;20028;-79
2023/12/21 03:34:26;;;;;;;;;;;12.70;95.20;;;;;;5094032;28;20255;-80
2023/12/21 03:36:52;;;;;;;;;;;12.70;95.20;;;;;;5076514;28;19915;-80
2023/12/21 03:39:17;;;;;;;;;;;12.60;95.20;;;;;;5076503;28;19908;-80
2023/12/21 03:41:43;;;;;;;;;;;12.60;95.20;;;;;;5094671;28;19912;-79
2023/12/21 03:44:08;;;;;;;;;;;12.60;95.20;;;;;;5076473;28;19966;-78
2023/12/21 03:46:34;;;;;;;;;;;12.60;95.30;;;;;;5076278;28;19928;-79
2023/12/21 03:48:59;;;;;;;;;;;12.60;95.30;;;;;;5059605;28;19915;-79
2023/12/21 03:51:25;;;;;;;;;;;12.70;95.30;;;;;;5094576;28;20046;-79
2023/12/21 03:53:51;;;;;;;;;;;12.70;95.30;;;;;;5059648;28;19911;-78
2023/12/21 03:56:16;;;;;;;;;;;12.70;95.30;;;;;;5094279;28;20151;-79
2023/12/21 03:58:42;;;;;;;;;;;12.70;95.30;;;;;;5059369;28;19908;-79
2023/12/21 04:01:08;;;;;;;;;;;12.70;95.30;;;;;;5076032;28;19947;-78
2023/12/21 04:03:34;;;;;;;;;;;12.70;95.30;;;;;;5076134;28;20272;-79
2023/12/21 04:05:59;;;;;;;;;;;12.70;95.30;;;;;;5094145;28;19923;-79
2023/12/21 04:08:25;;;;;;;;;;;12.70;95.30;;;;;;5094011;28;20371;-79
2023/12/21 04:10:50;;;;;;;;;;;12.70;95.30;;;;;;5059235;28;19919;-79
2023/12/21 04:13:16;;;;;;;;;;;12.70;95.30;;;;;;5075987;28;19908;-78
2023/12/21 04:15:42;;;;;;;;;;;12.70;95.30;;;;;;5059158;28;19914;-79
2023/12/21 04:18:07;;;;;;;;;;;12.70;95.30;;;;;;5093758;28;19951;-78
2023/12/21 04:20:33;;;;;;;;;;;12.70;95.30;;;;;;5075846;28;19912;-79
2023/12/21 04:22:58;;;;;;;;;;;12.70;95.30;;;;;;5075766;28;19908;-79
2023/12/21 04:25:24;;;;;;;;;;;12.70;95.30;;;;;;5075481;28;19912;-78
2023/12/21 04:27:49;;;;;;;;;;;12.70;95.30;;;;;;5075402;28;19963;-79
2023/12/21 04:30:15;;;;;;;;;;;12.60;95.30;;;;;;5075586;28;20578;-79
2023/12/21 04:32:41;;;;;;;;;;;12.70;95.30;;;;;;5075519;28;19915;-78
2023/12/21 04:35:10;;;;;;;;;;;12.70;95.30;;;;;;5093651;28;19911;-79
2023/12/21 04:37:35;;;;;;;;;;;12.60;95.30;;;;;;5058686;28;19919;-79
2023/12/21 04:40:02;;;;;;;;;;;12.60;95.20;;;;;;5075576;28;20275;-78
2023/12/21 04:42:28;;;;;;;;;;;12.60;95.20;;;;;;5075278;28;19903;-78
2023/12/21 04:44:53;;;;;;;;;;;12.60;95.30;;;;;;5074772;28;20344;-78
2023/12/21 04:47:19;;;;;;;;;;;12.60;95.30;;;;;;5075007;28;20348;-79
2023/12/21 04:49:44;;;;;;;;;;;12.60;95.30;;;;;;5075012;28;20279;-79
2023/12/21 04:52:10;;;;;;;;;;;12.60;95.30;;;;;;5058399;28;19998;-79
2023/12/21 04:54:36;;;;;;;;;;;12.60;95.30;;;;;;5093343;28;19915;-78
2023/12/21 04:57:01;;;;;;;;;;;12.60;95.30;;;;;;5075026;28;19908;-78
2023/12/21 04:59:27;;;;;;;;;;;12.60;95.30;;;;;;5074801;28;19919;-79
2023/12/21 05:01:54;;;;;;;;;;;12.60;95.30;;;;;;5075057;28;19923;-78
2023/12/21 05:04:19;;;;;;;;;;;12.60;95.30;;;;;;5092914;28;20428;-79
2023/12/21 05:06:45;;;;;;;;;;;12.60;95.30;;;;;;5092735;28;19944;-78
2023/12/21 05:09:11;;;;;;;;;;;12.70;95.30;;;;;;5074760;28;19919;-78
2023/12/21 05:11:36;;;;;;;;;;;12.70;95.30;;;;;;5058204;28;20279;-79
2023/12/21 05:14:02;;;;;;;;;;;12.70;95.30;;;;;;5092796;28;20370;-79
2023/12/21 05:16:27;;;;;;;;;;;12.70;95.30;;;;;;5092723;28;19915;-79
2023/12/21 05:18:53;;;;;;;;;;;12.70;95.30;;;;;;5057885;28;19916;-79
2023/12/21 05:21:18;;;;;;;;;;;12.70;95.30;;;;;;5074653;28;19918;-79
2023/12/21 05:23:44;;;;;;;;;;;12.70;95.40;;;;;;5092959;28;19916;-80
2023/12/21 05:26:13;;;;;;;;;;;12.70;95.40;;;;;;5077313;28;20183;-79
2023/12/21 05:28:39;;;;;;;;;;;12.70;95.40;;;;;;5074690;28;19912;-79
2023/12/21 05:31:06;;;;;;;;;;;12.80;95.40;;;;;;5092544;28;20009;-78
2023/12/21 05:33:31;;;;;;;;;;;12.80;95.40;;;;;;5074112;28;19908;-79
2023/12/21 05:35:57;;;;;;;;;;;12.80;95.40;;;;;;5057610;28;19953;-78
2023/12/21 05:38:22;;;;;;;;;;;12.80;95.40;;;;;;5057432;28;20402;-78
2023/12/21 05:40:48;;;;;;;;;;;12.80;95.40;;;;;;5057507;28;20254;-79
2023/12/21 05:43:14;;;;;;;;;;;12.80;95.40;;;;;;5092198;28;19999;-79
2023/12/21 05:45:39;;;;;;;;;;;12.80;95.30;;;;;;5057380;28;20036;-79
2023/12/21 05:48:05;;;;;;;;;;;12.80;95.30;;;;;;5092160;28;19908;-79
2023/12/21 05:50:30;;;;;;;;;;;12.80;95.50;;;;;;5074029;28;20439;-79
2023/12/21 05:52:56;;;;;;;;;;;12.80;95.40;;;;;;5057297;28;19974;-79
2023/12/21 05:55:22;;;;;;;;;;;12.80;95.40;;;;;;5073348;28;19908;-79
2023/12/21 05:57:47;;;;;;;;;;;12.80;95.40;;;;;;5056763;28;19919;-79
2023/12/21 06:00:13;;;;;;;;;;;12.80;95.30;;;;;;5092111;28;19904;-79
2023/12/21 06:02:39;;;;;;;;;;;12.80;95.40;;;;;;5073832;28;20451;-79
2023/12/21 06:05:04;;;;;;;;;;;12.80;95.40;;;;;;5091863;28;19908;-79
2023/12/21 06:07:30;;;;;;;;;;;12.80;95.40;;;;;;5073566;28;19939;-79
2023/12/21 06:09:56;;;;;;;;;;;12.80;95.40;;;;;;5073601;28;19937;-79
2023/12/21 06:12:22;;;;;;;;;;;12.80;95.40;;;;;;5073569;28;19974;-79
2023/12/21 06:14:47;;;;;;;;;;;12.80;95.40;;;;;;5073468;28;19912;-79
2023/12/21 06:17:14;;;;;;;;;;;12.80;95.40;;;;;;5073314;28;20286;-79
2023/12/21 06:19:42;;;;;;;;;;;12.80;95.40;;;;;;5092072;28;19961;-79
2023/12/21 06:22:08;;;;;;;;;;;12.90;95.50;;;;;;5091720;28;19961;-79
2023/12/21 06:24:33;;;;;;;;;;;12.90;95.40;;;;;;5073454;28;19987;-79
2023/12/21 06:26:59;;;;;;;;;;;12.90;95.40;;;;;;5091346;28;20010;-79
2023/12/21 06:29:25;;;;;;;;;;;12.90;95.40;;;;;;5073461;28;19959;-79
2023/12/21 06:31:51;;;;;;;;;;;12.80;95.40;;;;;;5056671;28;19939;-80
2023/12/21 06:34:17;;;;;;;;;;;12.80;95.40;;;;;;5073045;28;19904;-79
2023/12/21 06:36:43;;;;;;;;;;;12.80;95.40;;;;;;5072975;28;19916;-79
2023/12/21 06:39:09;;;;;;;;;;;12.80;95.40;;;;;;5072761;28;19904;-79
2023/12/21 06:41:35;;;;;;;;;;;12.80;95.40;;;;;;5072894;28;20448;-79
2023/12/21 06:44:00;;;;;;;;;;;12.80;95.50;;;;;;5091016;28;19904;-79
2023/12/21 06:46:26;;;;;;;;;;;12.80;95.50;;;;;;5072892;28;19912;-78
2023/12/21 06:48:51;;;;;;;;;;;12.90;95.50;;;;;;5072938;28;19916;-79
2023/12/21 06:51:17;;;;;;;;;;;12.90;95.40;;;;;;5090955;28;19960;-79
2023/12/21 06:53:42;;;;;;;;;;;12.90;95.40;;;;;;5091351;28;20052;-80
2023/12/21 06:56:11;;;;;;;;;;;12.80;95.30;;;;;;5090937;28;19909;-80
2023/12/21 06:58:36;;;;;;;;;;;12.80;95.30;;;;;;5090954;28;19969;-79
2023/12/21 07:01:02;;;;;;;;;;;12.80;95.30;;;;;;5091029;28;20364;-79
2023/12/21 07:03:28;;;;;;;;;;;12.70;95.30;;;;;;5072976;28;19908;-79
2023/12/21 07:05:53;;;;;;;;;;;12.70;95.40;;;;;;5056626;28;19916;-78
2023/12/21 07:08:19;;;;;;;;;;;12.70;95.40;;;;;;5094303;28;20374;-79
2023/12/21 07:10:45;;;;;;;;;;;12.70;95.50;;;;;;5060043;28;19908;-79
2023/12/21 07:13:11;;;;;;;;;;;12.80;95.50;;;;;;5076515;28;19904;-79
2023/12/21 07:15:36;;;;;;;;;;;12.80;95.50;;;;;;5076993;28;19904;-78
2023/12/21 07:18:02;;;;;;;;;;;12.80;95.40;;;;;;5094934;28;19904;-80
2023/12/21 07:20:30;;;;;;;;;;;12.80;95.40;;;;;;5095491;28;19908;-78
2023/12/21 07:22:56;;;;;;;;;;;12.80;95.40;;;;;;5095285;28;19943;-80
2023/12/21 07:25:21;;;;;;;;;;;12.80;95.40;;;;;;5094782;28;19947;-79
2023/12/21 07:27:47;;;;;;;;;;;12.80;95.40;;;;;;5094519;28;20279;-79
2023/12/21 07:30:13;;;;;;;;;;;12.80;95.40;;;;;;5094929;28;20273;-79
2023/12/21 07:32:39;;;;;;;;;;;12.80;95.40;;;;;;5059909;28;19908;-79
2023/12/21 07:35:05;;;;;;;;;;;12.80;95.40;;;;;;5076678;28;19915;-79
2023/12/21 07:37:31;;;;;;;;;;;12.80;95.40;;;;;;5076127;28;19908;-80
2023/12/21 07:39:56;;;;;;;;;;;12.80;95.50;;;;;;5059606;28;19909;-79
2023/12/21 07:42:22;;;;;;;;;;;12.90;95.50;;;;;;5059822;28;19908;-79
2023/12/21 07:44:47;;;;;;;;;;;12.90;95.50;;;;;;5094464;28;19908;-80
2023/12/21 07:47:13;;;;;;;;;;;12.90;95.50;;;;;;5076179;28;19911;-80
2023/12/21 07:49:39;;;;;;;;;;;12.90;95.50;;;;;;5059151;28;20393;-79
2023/12/21 07:52:04;;;;;;;;;;;13.00;95.50;;;;;;5059112;28;20041;-79
2023/12/21 07:54:30;;;;;;;;;;;13.00;95.50;;;;;;5076068;28;20320;-80
2023/12/21 07:56:55;;;;;;;;;;;13.00;95.40;;;;;;5075460;28;20386;-79
2023/12/21 07:59:22;;;;;;;;;;;12.90;95.30;;;;;;5093893;28;20253;-79
2023/12/21 08:01:48;;;;;;;;;;;12.80;95.20;;;;;;5059221;28;19919;-80
2023/12/21 08:04:13;;;;;;;;;;;12.70;95.20;;;;;;5075860;28;20342;-80
2023/12/21 08:06:39;;;;;;;;;;;12.60;95.20;;;;;;5075726;28;19980;-79
2023/12/21 08:09:04;;;;;;;;;;;12.60;95.30;;;;;;5075687;28;20272;-79
2023/12/21 08:11:30;;;;;;;;;;;12.50;95.30;;;;;;5059070;28;19931;-79
2023/12/21 08:13:55;;;;;;;;;;;12.50;95.40;;;;;;5076033;28;19919;-79
2023/12/21 08:16:21;;;;;;;;;;;12.60;95.40;;;;;;5059441;28;19965;-79
2023/12/21 08:18:46;;;;;;;;;;;12.60;95.50;;;;;;5074734;28;19904;-79
2023/12/21 08:21:12;;;;;;;;;;;12.60;95.50;;;;;;5075427;28;19919;-80
2023/12/21 08:23:39;;;;;;;;;;;12.60;95.50;;;;;;5093669;28;19908;-79
2023/12/21 08:26:05;;;;;;;;;;;12.60;95.40;;;;;;5075229;28;19912;-79
2023/12/21 08:28:31;;;;;;;;;;;12.60;95.50;;;;;;5075395;28;19919;-79
2023/12/21 08:30:57;;;;;;;;;;;12.70;95.50;;;;;;5075361;28;20356;-80
2023/12/21 08:33:22;;;;;;;;;;;12.70;95.50;;;;;;5093643;28;19937;-79
2023/12/21 08:35:48;;;;;;;;;;;12.70;95.40;;;;;;5075071;28;19904;-79
2023/12/21 08:38:13;;;;;;;;;;;12.70;95.40;;;;;;5075202;28;20259;-79
2023/12/21 08:40:39;;;;;;;;;;;12.70;95.40;;;;;;5075664;28;19919;-79
2023/12/21 08:43:05;;;;;;;;;;;12.70;95.50;;;;;;5075568;28;20340;-78
2023/12/21 08:45:31;;;;;;;;;;;12.80;95.50;;;;;;5075714;28;20326;-79
2023/12/21 08:47:57;;;;;;;;;;;12.80;95.40;;;;;;5075117;28;19954;-79
2023/12/21 08:50:23;;;;;;;;;;;12.80;95.30;;;;;;5074618;28;19947;-78
2023/12/21 08:52:49;;;;;;;;;;;12.70;95.20;;;;;;5074127;28;19904;-78
2023/12/21 08:55:14;;;;;;;;;;;12.60;95.20;;;;;;5074548;28;20356;-79
2023/12/21 08:57:40;;;;;;;;;;;12.40;95.10;;;;;;5092643;28;19908;-78
2023/12/21 09:00:06;;;;;;;;;;;12.30;95.10;;;;;;5057748;28;19912;-79
2023/12/21 09:02:35;;;;;;;;;;;12.30;95.20;;;;;;5075137;28;19942;-79
2023/12/21 09:05:02;;;;;;;;;;;12.20;95.20;;;;;;5092481;28;19927;-78
2023/12/21 09:07:28;;;;;;;;;;;12.20;95.30;;;;;;5092098;28;19919;-79
2023/12/21 09:09:53;;;;;;;;;;;12.20;95.30;;;;;;5092363;28;19912;-79
2023/12/21 09:12:19;;;;;;;;;;;12.10;95.30;;;;;;5087080;28;20384;-78
2023/12/21 09:14:45;;;;;;;;;;;12.10;95.30;;;;;;5076771;28;20287;-78
2023/12/21 09:17:11;;;;;;;;;;;12.20;95.30;;;;;;5112282;28;19908;-78
2023/12/21 09:19:36;;;;;;;;;;;12.30;95.30;;;;;;5093790;28;19911;-79
2023/12/21 09:22:02;;;;;;;;;;;12.30;95.30;;;;;;5078190;28;19912;-76
2023/12/21 09:24:28;;;;;;;;;;;12.30;95.30;;;;;;5095423;27;19964;-76
2023/12/21 09:26:53;;;;;;;;;;;12.40;95.30;;;;;;5077540;28;19997;-76
2023/12/21 09:29:19;;;;;;;;;;;12.40;95.30;;;;;;5089255;28;19912;-75
2023/12/21 09:31:44;;;;;;;;;;;12.30;95.20;;;;;;5111908;28;20002;-75
2023/12/21 09:34:11;;;;;;;;;;;12.30;95.20;;;;;;5113120;28;19908;-75
2023/12/21 09:36:36;;;;;;;;;;;12.30;95.20;;;;;;5094869;28;19904;-76
2023/12/21 09:39:03;;;;;;;;;;;12.30;95.20;;;;;;5068510;28;20046;-76
2023/12/21 09:41:29;;;;;;;;;;;12.30;95.20;;;;;;5098787;28;19908;-77
2023/12/21 09:43:57;;;;;;;;;;;12.30;95.20;;;;;;5093125;28;20248;-76
2023/12/21 09:46:23;;;;;;;;;;;12.30;95.30;;;;;;5093024;28;20334;-77
2023/12/21 09:48:50;;;;;;;;;;;12.40;95.30;;;;;;5093520;28;19908;-77
2023/12/21 09:51:16;;;;;;;;;;;12.40;95.30;;;;;;5074937;28;19908;-77
2023/12/21 09:53:43;;;;;;;;;;;12.50;95.30;;;;;;5095019;28;20005;-77
2023/12/21 09:56:12;;;;;;;;;;;12.50;95.30;;;;;;5113374;28;19961;-76
2023/12/21 09:58:38;;;;;;;;;;;12.50;95.30;;;;;;5094834;28;19911;-76
2023/12/21 10:01:04;;;;;;;;;;;12.60;95.40;;;;;;5102464;28;19988;-77
2023/12/21 10:03:29;;;;;;;;;;;12.60;95.40;;;;;;5076785;28;19948;-76
2023/12/21 10:05:55;;;;;;;;;;;12.60;95.40;;;;;;5077646;28;19977;-77
2023/12/21 10:08:21;;;;;;;;;;;12.70;95.50;;;;;;5095281;28;19979;-77
2023/12/21 10:10:47;;;;;;;;;;;12.80;95.50;;;;;;5090655;28;20016;-77
2023/12/21 10:13:12;;;;;;;;;;;12.80;95.40;;;;;;5113637;28;19972;-77
2023/12/21 10:15:42;;;;;;;;;;;12.80;95.40;;;;;;5114120;28;19929;-76
2023/12/21 10:18:08;;;;;;;;;;;12.80;95.40;;;;;;5113619;28;19916;-77
2023/12/21 10:20:33;;;;;;;;;;;12.80;95.40;;;;;;5113615;28;20362;-77
2023/12/21 10:22:59;;;;;;;;;;;12.80;95.40;;;;;;5078746;28;19907;-78
2023/12/21 10:25:25;;;;;;;;;;;12.80;95.40;;;;;;5114093;28;19919;-79
2023/12/21 10:27:54;;;;;;;;;;;12.90;95.50;;;;;;5078447;28;19924;-79
2023/12/21 10:30:22;;;;;;;;;;;12.90;95.40;;;;;;5113834;28;19904;-78
2023/12/21 10:32:57;;;;;;;;;;;12.80;95.10;;;;;;5113842;28;19972;-78
2023/12/21 10:35:23;;;;;;;;;;;12.60;95.00;;;;;;5095086;28;19910;-79
2023/12/21 10:37:48;;;;;;;;;;;12.50;95.00;;;;;;5095023;28;19908;-76
2023/12/21 10:40:14;;;;;;;;;;;12.30;95.00;;;;;;5113223;28;20272;-76
2023/12/21 10:42:45;;;;;;;;;;;12.30;95.10;;;;;;5116284;28;19950;-80
2023/12/21 10:45:13;;;;;;;;;;;12.20;95.20;;;;;;5100161;28;19980;-78
2023/12/21 10:47:41;;;;;;;;;;;12.10;95.20;;;;;;5099127;28;19903;-76
2023/12/21 10:50:07;;;;;;;;;;;12.10;95.20;;;;;;5117143;28;19911;-77
2023/12/21 10:52:34;;;;;;;;;;;12.10;95.10;;;;;;5117292;28;19912;-78
2023/12/21 10:55:00;;;;;;;;;;;12.00;95.10;;;;;;5082695;28;19907;-79
2023/12/21 10:57:26;;;;;;;;;;;12.00;95.10;;;;;;5096981;28;19908;-82
2023/12/21 10:59:52;;;;;;;;;;;11.90;95.10;;;;;;5062295;28;19908;-76
2023/12/21 11:02:18;;;;;;;;;;;11.90;95.20;;;;;;5078360;28;19909;-73
2023/12/21 11:04:45;;;;;;;;;;;11.90;95.20;;;;;;5096945;28;20367;-78
2023/12/21 11:07:11;;;;;;;;;;;11.80;95.20;;;;;;5097160;28;19942;-79
2023/12/21 11:09:37;;;;;;;;;;;11.80;95.20;;;;;;5096310;28;19911;-75
2023/12/21 11:12:02;;;;;;;;;;;11.80;95.20;;;;;;5095987;28;19908;-75
2023/12/21 11:14:28;;;;;;;;;;;11.80;95.20;;;;;;5096308;28;19909;-74
2023/12/21 11:16:58;;;;;;;;;;;11.80;95.20;;;;;;5096069;28;20272;-77
2023/12/21 11:19:29;;;;;;;;;;;11.90;95.30;;;;;;5095628;28;19965;-77
2023/12/21 11:21:55;;;;;;;;;;;11.90;95.20;;;;;;5077716;28;20329;-76
2023/12/21 11:24:21;;;;;;;;;;;11.90;95.20;;;;;;5077505;28;19926;-77
2023/12/21 11:26:48;;;;;;;;;;;11.90;95.30;;;;;;5095685;28;19965;-78
2023/12/21 11:29:13;;;;;;;;;;;11.90;95.30;;;;;;5095805;28;19908;-74
2023/12/21 11:31:40;;;;;;;;;;;12.10;95.40;;;;;;5078224;28;19969;-77
2023/12/21 11:34:28;;;;;;;;;;;12.30;95.70;;;;;;5096411;28;19904;-76
2023/12/21 11:37:12;;;;;;;;;;;12.40;95.60;;;;;;5095627;28;19904;-80
2023/12/21 11:39:38;;;;;;;;;;;12.60;95.60;;;;;;5079025;28;19911;-78
2023/12/21 11:42:05;;;;;;;;;;;13.00;96.00;;;;;;5077727;28;19908;-76
2023/12/21 11:44:37;;;;;;;;;;;13.40;96.10;;;;;;5077800;28;19912;-78
2023/12/21 11:47:25;;;;;;;;;;;13.80;96.10;;;;;;5077408;28;20030;-75
2023/12/21 11:49:51;;;;;;;;;;;14.20;96.00;;;;;;5095912;28;19912;-77
2023/12/21 11:52:26;;;;;;;;;;;14.50;95.90;;;;;;5077359;28;19973;-79
2023/12/21 11:54:51;;;;;;;;;;;14.70;95.90;;;;;;5075909;28;19994;-77
2023/12/21 11:57:17;;;;;;;;;;;14.80;95.70;;;;;;5095246;28;19947;-77
2023/12/21 11:59:42;;;;;;;;;;;14.70;95.50;;;;;;5107948;28;19969;-75
2023/12/21 12:02:11;;;;;;;;;;;14.50;95.30;;;;;;5097916;28;20340;-79
2023/12/21 12:04:36;;;;;;;;;;;14.40;95.50;;;;;;5098243;28;19904;-80
2023/12/21 12:07:03;;;;;;;;;;;14.50;95.90;;;;;;5080651;28;20309;-77
2023/12/21 12:09:29;;;;;;;;;;;14.80;96.10;;;;;;5115911;28;20288;-79
2023/12/21 12:11:54;;;;;;;;;;;15.00;96.00;;;;;;5115572;28;19908;-70
2023/12/21 12:14:20;;;;;;;;;;;15.10;96.00;;;;;;5115356;28;19991;-74
2023/12/21 12:16:46;;;;;;;;;;;15.20;96.00;;;;;;5114986;28;20248;-80
2023/12/21 12:19:12;;;;;;;;;;;15.40;96.10;;;;;;5116000;28;19915;-80
2023/12/21 12:21:38;;;;;;;;;;;15.50;96.00;;;;;;5097157;28;19950;-76
2023/12/21 12:24:05;;;;;;;;;;;15.50;95.70;;;;;;5097224;28;19984;-76
2023/12/21 12:26:31;;;;;;;;;;;15.20;95.40;;;;;;5097700;28;19920;-72
2023/12/21 12:28:56;;;;;;;;;;;14.90;95.30;;;;;;5115201;28;20401;-82
2023/12/21 12:31:22;;;;;;;;;;;14.60;95.40;;;;;;5115514;28;19908;-75
2023/12/21 12:33:48;;;;;;;;;;;14.40;95.40;;;;;;5115185;28;20351;-80
2023/12/21 12:36:17;;;;;;;;;;;14.20;95.40;;;;;;5114584;28;20351;-77
2023/12/21 12:38:45;;;;;;;;;;;14.00;95.30;;;;;;5115683;28;19907;-75
2023/12/21 12:41:20;;;;;;;;;;;13.80;95.40;;;;;;5080442;28;20334;-83
2023/12/21 12:43:46;;;;;;;;;;;13.70;95.40;;;;;;5097685;28;20249;-78
2023/12/21 12:46:13;;;;;;;;;;;13.60;95.40;;;;;;5116166;28;19908;-74
2023/12/21 12:48:39;;;;;;;;;;;13.40;95.40;;;;;;5098116;28;19948;-79
2023/12/21 12:51:05;;;;;;;;;;;13.30;95.40;;;;;;5114754;28;19914;-75
2023/12/21 12:53:31;;;;;;;;;;;13.20;95.40;;;;;;5111365;28;19908;-83
2023/12/21 12:55:57;;;;;;;;;;;13.10;95.40;;;;;;5094259;28;19907;-76
2023/12/21 12:58:24;;;;;;;;;;;13.00;95.40;;;;;;5115725;28;19908;-79
2023/12/21 13:00:50;;;;;;;;;;;13.00;95.40;;;;;;5115647;28;20346;-79
2023/12/21 13:03:16;;;;;;;;;;;12.90;95.40;;;;;;5097233;28;19904;-82
2023/12/21 13:05:41;;;;;;;;;;;12.80;95.40;;;;;;5115412;28;20274;-83
2023/12/21 13:08:07;;;;;;;;;;;12.80;95.40;;;;;;5096611;28;19912;-76
2023/12/21 13:10:32;;;;;;;;;;;12.80;95.50;;;;;;5115587;28;19908;-78
2023/12/21 13:12:58;;;;;;;;;;;12.80;95.50;;;;;;5080230;28;19943;-78
2023/12/21 13:15:24;;;;;;;;;;;12.90;95.80;;;;;;5097422;28;19904;-78
2023/12/21 13:17:51;;;;;;;;;;;12.90;95.50;;;;;;5115672;28;19916;-74
2023/12/21 13:20:17;;;;;;;;;;;12.90;95.60;;;;;;5116165;28;19998;-79
2023/12/21 13:22:42;;;;;;;;;;;13.10;95.60;;;;;;5080622;28;19954;-81
2023/12/21 13:25:08;;;;;;;;;;;13.20;95.60;;;;;;5115430;28;20426;-81
2023/12/21 13:27:33;;;;;;;;;;;13.30;95.60;;;;;;5095912;28;20295;-78
2023/12/21 13:29:59;;;;;;;;;;;13.30;95.50;;;;;;5096447;28;19912;-78
2023/12/21 13:32:25;;;;;;;;;;;13.40;95.40;;;;;;5094393;28;19908;-79
2023/12/21 13:34:50;;;;;;;;;;;13.40;95.40;;;;;;5075858;28;19908;-75
2023/12/21 13:37:16;;;;;;;;;;;13.40;95.40;;;;;;5074809;28;20287;-73
2023/12/21 13:39:42;;;;;;;;;;;13.40;95.40;;;;;;5092255;28;19908;-74
2023/12/21 13:42:09;;;;;;;;;;;13.40;95.40;;;;;;5092122;28;19908;-73
2023/12/21 13:44:35;;;;;;;;;;;13.40;95.40;;;;;;5093125;28;19904;-75
2023/12/21 13:47:00;;;;;;;;;;;13.40;95.40;;;;;;5093120;28;20371;-75
2023/12/21 13:49:29;;;;;;;;;;;13.40;95.40;;;;;;5092658;28;19916;-75
2023/12/21 13:51:54;;;;;;;;;;;13.30;95.30;;;;;;5092686;28;19954;-74
2023/12/21 13:54:21;;;;;;;;;;;13.20;95.40;;;;;;5092973;28;19912;-76
2023/12/21 13:56:47;;;;;;;;;;;13.20;95.50;;;;;;5074350;28;19915;-74
2023/12/21 13:59:13;;;;;;;;;;;13.20;95.50;;;;;;5092251;28;20252;-73
2023/12/21 14:01:39;;;;;;;;;;;13.20;95.50;;;;;;5092851;28;19908;-74
2023/12/21 14:04:05;;;;;;;;;;;13.10;95.40;;;;;;5092188;28;19995;-75
2023/12/21 14:06:31;;;;;;;;;;;13.10;95.40;;;;;;5092536;28;19908;-75
2023/12/21 14:08:57;;;;;;;;;;;13.10;95.40;;;;;;5092835;28;19991;-75